Home > Products > Valid Products > TAF

000
FTUS43 KBIS 110656 AAA
TAFISN
TAF AMD
KISN 110656Z 1107/1206 13006KT P6SM VCSH OVC010
     FM110900 09005KT 2SM -SN BR OVC008
     FM111800 05006KT 3SM -SN BR OVC008
     FM112300 03005KT P6SM -SN OVC008
     FM120100 02006KT P6SM VCSH OVC015
     FM120300 02006KT P6SM OVC035=



000
FTUS43 KBIS 110656 AAA
TAFISN
TAF AMD
KISN 110656Z 1107/1206 13006KT P6SM VCSH OVC010
     FM110900 09005KT 2SM -SN BR OVC008
     FM111800 05006KT 3SM -SN BR OVC008
     FM112300 03005KT P6SM -SN OVC008
     FM120100 02006KT P6SM VCSH OVC015
     FM120300 02006KT P6SM OVC035=



000
FTUS43 KBIS 110522
TAFDIK
TAF
KDIK 110522Z 1106/1206 09004KT 6SM BR OVC006
     FM110900 11004KT P6SM -SN OVC006
     FM111200 14005KT 1SM -SN BR OVC003
     FM111800 12006KT 2SM -SN OVC008
     FM112000 05005KT 3SM -SN OVC008
     FM120000 02006KT P6SM VCSH OVC010=



000
FTUS43 KBIS 110522
TAFJMS
TAF
KJMS 110522Z 1106/1206 VRB03KT P6SM OVC020
     FM111100 15004KT P6SM OVC010
     FM112000 06004KT P6SM -SN OVC010
     FM120000 03005KT P6SM OVC015
     FM120100 03006KT P6SM OVC035
     FM120500 36008KT P6SM BKN060=



000
FTUS43 KBIS 110522
TAFBIS
TAF
KBIS 110522Z 1106/1206 VRB03KT P6SM OVC015
     FM111200 12004KT 4SM -SN BR OVC010
     FM111400 13004KT 2SM -SN BR OVC007
     FM112200 05006KT 5SM -SN BR OVC015
     FM120000 03007KT P6SM VCSH OVC025
     FM120500 02007KT P6SM OVC035=



000
FTUS43 KBIS 110522
TAFMOT
TAF
KMOT 110522Z 1106/1206 00000KT P6SM OVC015
     FM111000 VRB03KT P6SM OVC010
     FM111600 07004KT 3SM -SN BR OVC010
     FM120100 01007KT P6SM OVC030
     FM120200 01008KT P6SM OVC050=



000
FTUS43 KBIS 110522
TAFISN
TAF
KISN 110522Z 1106/1206 03004KT 6SM -SN BR OVC009
     FM110900 09005KT 2SM -SN BR OVC008
     FM111800 05006KT 3SM -SN BR OVC008
     FM112300 03005KT P6SM -SN OVC008
     FM120100 02006KT P6SM VCSH OVC015
     FM120300 02006KT P6SM OVC035=



000
FTUS43 KBIS 110522
TAFBIS
TAF
KBIS 110522Z 1106/1206 VRB03KT P6SM OVC015
     FM111200 12004KT 4SM -SN BR OVC010
     FM111400 13004KT 2SM -SN BR OVC007
     FM112200 05006KT 5SM -SN BR OVC015
     FM120000 03007KT P6SM VCSH OVC025
     FM120500 02007KT P6SM OVC035=



000
FTUS43 KBIS 110522
TAFJMS
TAF
KJMS 110522Z 1106/1206 VRB03KT P6SM OVC020
     FM111100 15004KT P6SM OVC010
     FM112000 06004KT P6SM -SN OVC010
     FM120000 03005KT P6SM OVC015
     FM120100 03006KT P6SM OVC035
     FM120500 36008KT P6SM BKN060=



000
FTUS43 KBIS 110522
TAFDIK
TAF
KDIK 110522Z 1106/1206 09004KT 6SM BR OVC006
     FM110900 11004KT P6SM -SN OVC006
     FM111200 14005KT 1SM -SN BR OVC003
     FM111800 12006KT 2SM -SN OVC008
     FM112000 05005KT 3SM -SN OVC008
     FM120000 02006KT P6SM VCSH OVC010=



000
FTUS43 KBIS 110522
TAFISN
TAF
KISN 110522Z 1106/1206 03004KT 6SM -SN BR OVC009
     FM110900 09005KT 2SM -SN BR OVC008
     FM111800 05006KT 3SM -SN BR OVC008
     FM112300 03005KT P6SM -SN OVC008
     FM120100 02006KT P6SM VCSH OVC015
     FM120300 02006KT P6SM OVC035=



000
FTUS43 KBIS 110522
TAFMOT
TAF
KMOT 110522Z 1106/1206 00000KT P6SM OVC015
     FM111000 VRB03KT P6SM OVC010
     FM111600 07004KT 3SM -SN BR OVC010
     FM120100 01007KT P6SM OVC030
     FM120200 01008KT P6SM OVC050=



000
FTUS43 KBIS 110402 AAA
TAFDIK
TAF AMD
KDIK 110402Z 1104/1124 08005KT P6SM OVC009
     FM111000 14004KT 3SM -SN BR OVC006
     FM111200 15004KT 2SM -SN BR OVC004
     FM111600 08005KT 3SM -SN BR OVC006=



000
FTUS43 KBIS 110402 AAA
TAFDIK
TAF AMD
KDIK 110402Z 1104/1124 08005KT P6SM OVC009
     FM111000 14004KT 3SM -SN BR OVC006
     FM111200 15004KT 2SM -SN BR OVC004
     FM111600 08005KT 3SM -SN BR OVC006=



000
FTUS43 KBIS 110230 AAA
TAFMOT
TAF AMD
KMOT 110230Z 1103/1124 04003KT P6SM OVC024
     FM110500 VRB03KT P6SM OVC010
     FM110900 VRB03KT P6SM OVC008
     FM111800 03004KT P6SM -SN OVC010
     FM112100 34009KT P6SM OVC015=



000
FTUS43 KBIS 110014 AAA
TAFJMS
TAF AMD
KJMS 110014Z 1100/1124 07009KT P6SM -SN OVC018
     FM110300 11005KT P6SM OVC015
     FM111200 15004KT P6SM OVC008
     FM111800 16004KT P6SM OVC015
     FM112100 VRB05KT P6SM OVC015=



000
FTUS43 KBIS 110014 AAA
TAFJMS
TAF AMD
KJMS 110014Z 1100/1124 07009KT P6SM -SN OVC018
     FM110300 11005KT P6SM OVC015
     FM111200 15004KT P6SM OVC008
     FM111800 16004KT P6SM OVC015
     FM112100 VRB05KT P6SM OVC015=



000
FTUS43 KBIS 110013 AAA
TAFISN
TAF AMD
KISN 110013Z 1100/1124 02009KT P6SM OVC008
     FM110800 05005KT 3SM -SN BR OVC008
     FM111200 09005KT 2SM -SN BR OVC008
     FM111800 09005KT 4SM -SN BR OVC010=



000
FTUS43 KBIS 110013 AAA
TAFISN
TAF AMD
KISN 110013Z 1100/1124 02009KT P6SM OVC008
     FM110800 05005KT 3SM -SN BR OVC008
     FM111200 09005KT 2SM -SN BR OVC008
     FM111800 09005KT 4SM -SN BR OVC010=



000
FTUS43 KBIS 102337
TAFBIS
TAF
KBIS 102337Z 1100/1124 08008KT P6SM OVC015
     FM111000 12004KT 6SM BR OVC008
     FM111800 08007KT 3SM -SN BR OVC010=



000
FTUS43 KBIS 102337
TAFDIK
TAF
KDIK 102337Z 1100/1124 35013KT P6SM OVC013
     FM110500 10005KT P6SM OVC010
     FM111000 14004KT 3SM -SN BR OVC015
     FM111200 15004KT 2SM -SN BR OVC006
     FM112000 05005KT 3SM -SN BR OVC008=



000
FTUS43 KBIS 102337
TAFMOT
TAF
KMOT 102337Z 1100/1124 03004KT 5SM -SN OVC014
     FM110500 VRB03KT P6SM OVC010
     FM110900 VRB03KT P6SM OVC008
     FM111800 03004KT P6SM -SN OVC010
     FM112100 34009KT P6SM OVC015=



000
FTUS43 KBIS 102337
TAFJMS
TAF
KJMS 102337Z 1100/1124 07009KT 4SM -SN SCT015 OVC020
     FM110300 11005KT P6SM OVC015
     FM111200 15004KT P6SM OVC008
     FM111800 16004KT P6SM OVC015
     FM112100 VRB05KT P6SM OVC015=



000
FTUS43 KBIS 102337
TAFISN
TAF
KISN 102337Z 1100/1124 02008KT P6SM OVC012
     FM110900 05005KT 3SM -SN BR OVC008
     FM111200 09005KT 2SM -SN BR OVC008
     FM111800 09005KT 4SM -SN BR OVC010=



000
FTUS43 KBIS 102337
TAFISN
TAF
KISN 102337Z 1100/1124 02008KT P6SM OVC012
     FM110900 05005KT 3SM -SN BR OVC008
     FM111200 09005KT 2SM -SN BR OVC008
     FM111800 09005KT 4SM -SN BR OVC010=



000
FTUS43 KBIS 102337
TAFDIK
TAF
KDIK 102337Z 1100/1124 35013KT P6SM OVC013
     FM110500 10005KT P6SM OVC010
     FM111000 14004KT 3SM -SN BR OVC015
     FM111200 15004KT 2SM -SN BR OVC006
     FM112000 05005KT 3SM -SN BR OVC008=



000
FTUS43 KBIS 102337
TAFBIS
TAF
KBIS 102337Z 1100/1124 08008KT P6SM OVC015
     FM111000 12004KT 6SM BR OVC008
     FM111800 08007KT 3SM -SN BR OVC010=



000
FTUS43 KBIS 102337
TAFMOT
TAF
KMOT 102337Z 1100/1124 03004KT 5SM -SN OVC014
     FM110500 VRB03KT P6SM OVC010
     FM110900 VRB03KT P6SM OVC008
     FM111800 03004KT P6SM -SN OVC010
     FM112100 34009KT P6SM OVC015=



000
FTUS43 KBIS 102337
TAFJMS
TAF
KJMS 102337Z 1100/1124 07009KT 4SM -SN SCT015 OVC020
     FM110300 11005KT P6SM OVC015
     FM111200 15004KT P6SM OVC008
     FM111800 16004KT P6SM OVC015
     FM112100 VRB05KT P6SM OVC015=



000
FTUS43 KBIS 102044 AAB
TAFJMS
TAF AMD
KJMS 102044Z 1021/1118 09009KT P6SM BKN020
      TEMPO 1021/1023 2SM -SN
     FM110600 10004KT P6SM BKN025=



000
FTUS43 KBIS 102044 AAB
TAFJMS
TAF AMD
KJMS 102044Z 1021/1118 09009KT P6SM BKN020
      TEMPO 1021/1023 2SM -SN
     FM110600 10004KT P6SM BKN025=



000
FTUS43 KBIS 102044 AAA
TAFDIK
TAF AMD
KDIK 102044Z 1021/1118 34014KT P6SM OVC014
     FM110300 36006KT 6SM BR OVC010
     FM111400 09004KT 2SM -SN BR OVC008=



000
FTUS43 KBIS 101720
TAFMOT
TAF
KMOT 101720Z 1018/1118 12009KT P6SM OVC010
     FM102100 36004KT P6SM OVC008
     FM110000 02006KT P6SM OVC015=



000
FTUS43 KBIS 101720
TAFJMS
TAF
KJMS 101720Z 1018/1118 11011KT P6SM BKN028
     FM102100 11008KT P6SM OVC025
     FM110600 10004KT P6SM BKN025=



000
FTUS43 KBIS 101720
TAFDIK
TAF
KDIK 101720Z 1018/1118 33015G23KT P6SM BKN030
     FM101900 34010KT P6SM OVC025
     FM110300 36006KT 6SM BR OVC010
     FM111400 09004KT 2SM -SN BR OVC008=



000
FTUS43 KBIS 101720
TAFBIS
TAF
KBIS 101720Z 1018/1118 11007KT P6SM OVC013
     FM110000 04007KT P6SM OVC010=



000
FTUS43 KBIS 101638 AAA
TAFJMS
TAF AMD
KJMS 101638Z 1017/1112 12010KT P6SM -SN OVC040
     FM101900 11008KT P6SM OVC025
     FM110400 10004KT P6SM BKN025=



000
FTUS43 KBIS 101638 AAA
TAFJMS
TAF AMD
KJMS 101638Z 1017/1112 12010KT P6SM -SN OVC040
     FM101900 11008KT P6SM OVC025
     FM110400 10004KT P6SM BKN025=



000
FTUS43 KBIS 101241 AAA
TAFJMS
TAF AMD
KJMS 101241Z 1013/1112 12010KT 3SM -SN BR OVC040
      TEMPO 1013/1015 1SM -SN OVC015
     FM101700 12010KT P6SM -SN OVC020
     FM101900 11008KT P6SM OVC015
     FM110400 10004KT P6SM BKN025=



000
FTUS43 KBIS 101125
TAFMOT
TAF
KMOT 101125Z 1012/1112 12009KT P6SM OVC010
     FM102000 36004KT P6SM OVC008
     FM110000 02006KT P6SM OVC015=



000
FTUS43 KBIS 101125
TAFISN
TAF
KISN 101125Z 1012/1112 21007KT P6SM BKN200 WS020/33040KT
     FM101600 33008KT P6SM OVC015
     FM110000 36008KT P6SM OVC008
     FM110700 03004KT 6SM BR OVC010=



000
FTUS43 KBIS 101125
TAFJMS
TAF
KJMS 101125Z 1012/1112 12010KT 3SM -SN BR OVC028
     FM101700 12010KT P6SM -SN OVC020
     FM101900 11008KT P6SM OVC015
     FM110400 10004KT P6SM BKN025=



000
FTUS43 KBIS 101125
TAFBIS
TAF
KBIS 101125Z 1012/1112 12007KT P6SM BKN060
     FM101500 11007KT P6SM BKN035
     FM101900 06006KT P6SM OVC020
     FM110000 04007KT P6SM OVC010
     FM110700 00000KT P6SM OVC020=



000
FTUS43 KBIS 101125
TAFDIK
TAF
KDIK 101125Z 1012/1112 28010KT P6SM SCT250 WS020/30040KT
     FM101500 31013KT P6SM SCT250
     FM102100 34010KT P6SM OVC025
     FM110300 36006KT 6SM BR OVC010
     FM111100 09004KT 6SM BR OVC008=



000
FTUS43 KBIS 101125
TAFISN
TAF
KISN 101125Z 1012/1112 21007KT P6SM BKN200 WS020/33040KT
     FM101600 33008KT P6SM OVC015
     FM110000 36008KT P6SM OVC008
     FM110700 03004KT 6SM BR OVC010=



000
FTUS43 KBIS 101125
TAFJMS
TAF
KJMS 101125Z 1012/1112 12010KT 3SM -SN BR OVC028
     FM101700 12010KT P6SM -SN OVC020
     FM101900 11008KT P6SM OVC015
     FM110400 10004KT P6SM BKN025=



000
FTUS43 KBIS 101125
TAFMOT
TAF
KMOT 101125Z 1012/1112 12009KT P6SM OVC010
     FM102000 36004KT P6SM OVC008
     FM110000 02006KT P6SM OVC015=



000
FTUS43 KBIS 101125
TAFBIS
TAF
KBIS 101125Z 1012/1112 12007KT P6SM BKN060
     FM101500 11007KT P6SM BKN035
     FM101900 06006KT P6SM OVC020
     FM110000 04007KT P6SM OVC010
     FM110700 00000KT P6SM OVC020=



000
FTUS43 KBIS 101125
TAFDIK
TAF
KDIK 101125Z 1012/1112 28010KT P6SM SCT250 WS020/30040KT
     FM101500 31013KT P6SM SCT250
     FM102100 34010KT P6SM OVC025
     FM110300 36006KT 6SM BR OVC010
     FM111100 09004KT 6SM BR OVC008=



000
FTUS43 KBIS 100900 AAA
TAFMOT
TAF AMD
KMOT 100900Z 1009/1106 12010KT P6SM -SN OVC035
     FM101300 12009KT P6SM OVC015
     FM101500 09008KT P6SM OVC008
     FM101800 06006KT P6SM OVC010
     FM101900 03006KT P6SM OVC010=



000
FTUS43 KBIS 100754 AAB
TAFBIS
TAF AMD
KBIS 100754Z 1008/1106 10008KT P6SM VCSH OVC040
     FM101200 11007KT P6SM OVC030
     FM101600 10007KT P6SM OVC020
     FM101800 07006KT P6SM OVC010
     FM102100 01008KT P6SM OVC010=



000
FTUS43 KBIS 100621 AAA
TAFBIS
TAF AMD
KBIS 100621Z 1006/1106 10008KT P6SM VCSH OVC040
     FM100700 13007KT 5SM -SN OVC035
     FM101200 11007KT P6SM OVC030
     FM101600 10007KT P6SM OVC020
     FM101800 07006KT P6SM OVC010
     FM102100 01008KT P6SM OVC010=



000
FTUS43 KBIS 100621 AAA
TAFBIS
TAF AMD
KBIS 100621Z 1006/1106 10008KT P6SM VCSH OVC040
     FM100700 13007KT 5SM -SN OVC035
     FM101200 11007KT P6SM OVC030
     FM101600 10007KT P6SM OVC020
     FM101800 07006KT P6SM OVC010
     FM102100 01008KT P6SM OVC010=



000
FTUS43 KBIS 100531
TAFMOT
TAF
KMOT 100531Z 1006/1106 12010KT 1 1/2SM -SN OVC020
     FM101000 12010KT 3SM -SN OVC015
     FM101300 12009KT P6SM OVC015
     FM101500 09008KT P6SM OVC008
     FM101800 06006KT P6SM OVC010
     FM101900 03006KT P6SM OVC010=



000
FTUS43 KBIS 100531
TAFBIS
TAF
KBIS 100531Z 1006/1106 10008KT P6SM VCSH OVC040
     FM100800 13007KT 5SM -SN OVC035
     FM101200 11007KT P6SM OVC030
     FM101600 10007KT P6SM OVC020
     FM101800 07006KT P6SM OVC010
     FM102100 01008KT P6SM OVC010=



000
FTUS43 KBIS 100531
TAFDIK
TAF
KDIK 100531Z 1006/1106 20008KT P6SM SCT120
     FM101000 25008KT P6SM SCT120
     FM101200 28010KT P6SM SCT100 SCT150 WS020/30040KT
     FM101500 31013KT P6SM BKN150
     FM102000 33015KT P6SM BKN025
     FM110200 36009KT P6SM OVC010=



000
FTUS43 KBIS 100531
TAFJMS
TAF
KJMS 100531Z 1006/1106 11008KT P6SM VCSH OVC045
     FM100700 12009KT 2SM -SN BR OVC025
     FM101600 12010KT 3SM -SN OVC020
     FM101800 12010KT P6SM -SN OVC015
     FM110000 07006KT P6SM OVC010
     FM110500 04005KT P6SM OVC035=



000
FTUS43 KBIS 100531
TAFISN
TAF
KISN 100531Z 1006/1106 17005KT P6SM SCT100
     FM101100 29005KT P6SM OVC200 WS020/33040KT
     FM101500 34009KT P6SM BKN015
     FM101800 34011KT P6SM OVC010
     FM110500 04006KT P6SM OVC008=



000
FTUS43 KBIS 100531
TAFMOT
TAF
KMOT 100531Z 1006/1106 12010KT 1 1/2SM -SN OVC020
     FM101000 12010KT 3SM -SN OVC015
     FM101300 12009KT P6SM OVC015
     FM101500 09008KT P6SM OVC008
     FM101800 06006KT P6SM OVC010
     FM101900 03006KT P6SM OVC010=



000
FTUS43 KBIS 100531
TAFISN
TAF
KISN 100531Z 1006/1106 17005KT P6SM SCT100
     FM101100 29005KT P6SM OVC200 WS020/33040KT
     FM101500 34009KT P6SM BKN015
     FM101800 34011KT P6SM OVC010
     FM110500 04006KT P6SM OVC008=



000
FTUS43 KBIS 100531
TAFDIK
TAF
KDIK 100531Z 1006/1106 20008KT P6SM SCT120
     FM101000 25008KT P6SM SCT120
     FM101200 28010KT P6SM SCT100 SCT150 WS020/30040KT
     FM101500 31013KT P6SM BKN150
     FM102000 33015KT P6SM BKN025
     FM110200 36009KT P6SM OVC010=



000
FTUS43 KBIS 100531
TAFBIS
TAF
KBIS 100531Z 1006/1106 10008KT P6SM VCSH OVC040
     FM100800 13007KT 5SM -SN OVC035
     FM101200 11007KT P6SM OVC030
     FM101600 10007KT P6SM OVC020
     FM101800 07006KT P6SM OVC010
     FM102100 01008KT P6SM OVC010=



000
FTUS43 KBIS 100531
TAFJMS
TAF
KJMS 100531Z 1006/1106 11008KT P6SM VCSH OVC045
     FM100700 12009KT 2SM -SN BR OVC025
     FM101600 12010KT 3SM -SN OVC020
     FM101800 12010KT P6SM -SN OVC015
     FM110000 07006KT P6SM OVC010
     FM110500 04005KT P6SM OVC035=



000
FTUS43 KBIS 100331 AAA
TAFMOT
TAF AMD
KMOT 100331Z 1004/1024 10011KT 3SM -SN OVC025
      TEMPO 1004/1007 1SM -SN BR OVC012
     FM100700 12008KT 2SM -SN BR OVC012
     FM101100 13008KT 4SM -SN BR OVC015
     FM101400 08007KT 5SM BR OVC008
     FM101900 32009KT P6SM OVC015=



000
FTUS43 KBIS 092339
TAFBIS
TAF
KBIS 092339Z 1000/1024 32004KT P6SM OVC080
     FM100700 12006KT 5SM -SN OVC040
     FM100900 13007KT 2SM -SN BR OVC015
     FM101200 14007KT 4SM BR OVC015
     FM101700 04005KT P6SM BKN015=



000
FTUS43 KBIS 092339
TAFDIK
TAF
KDIK 092339Z 1000/1024 34005KT P6SM SCT035 OVC060
     FM100400 17004KT P6SM OVC090
     FM101200 28009KT P6SM SCT200 WS020/30040KT
     FM101600 30012KT P6SM BKN100
     FM101900 33013KT P6SM BKN020=



000
FTUS43 KBIS 092339
TAFISN
TAF
KISN 092339Z 1000/1024 12003KT P6SM OVC080
     FM101000 29007KT P6SM BKN040 WS020/33040KT
     FM101500 32012KT P6SM BKN015
     FM102000 35016KT P6SM OVC025=



000
FTUS43 KBIS 092339
TAFJMS
TAF
KJMS 092339Z 1000/1024 07007KT P6SM OVC045
     FM100600 11006KT P6SM VCSH OVC025
     FM100800 13009KT 2SM -SN BR OVC012
     FM101400 13010KT 3SM -SN BR OVC008
     FM101800 12010KT P6SM -SN OVC015=



000
FTUS43 KBIS 092339
TAFMOT
TAF
KMOT 092339Z 1000/1024 34008KT P6SM SCT060 OVC080
     FM100300 11008KT P6SM -SN OVC045
     FM100500 12008KT 2SM -SN BR OVC012
     FM101100 13008KT 4SM -SN BR OVC015
     FM101400 08007KT 5SM BR OVC008
     FM101900 32009KT P6SM OVC015=



000
FTUS43 KBIS 091720
TAFJMS
TAF
KJMS 091720Z 0918/1018 36005KT P6SM OVC050
     FM100200 09006KT P6SM OVC030
     FM100600 11006KT P6SM VCSH OVC035
     FM100900 13008KT 2SM -SN BR OVC010=



000
FTUS43 KBIS 091720
TAFDIK
TAF
KDIK 091720Z 0918/1018 30011KT P6SM OVC050
     FM092300 31008KT P6SM VCSH OVC035
     FM100700 22006KT P6SM OVC050=



000
FTUS43 KBIS 091720
TAFMOT
TAF
KMOT 091720Z 0918/1018 24011KT P6SM BKN100
     FM092300 10006KT P6SM VCSH OVC035
     FM100200 11007KT 2SM -SN OVC020
     FM100600 13008KT 2SM -SN OVC010=



000
FTUS43 KBIS 091720
TAFBIS
TAF
KBIS 091720Z 0918/1018 24008KT P6SM SCT060 BKN100
     FM092100 10004KT P6SM BKN050
     FM100200 11006KT P6SM -SN OVC025
     FM100600 13007KT 2SM -SN BR OVC015=



000
FTUS43 KBIS 091720
TAFDIK
TAF
KDIK 091720Z 0918/1018 30011KT P6SM OVC050
     FM092300 31008KT P6SM VCSH OVC035
     FM100700 22006KT P6SM OVC050=



000
FTUS43 KBIS 091720
TAFISN
TAF
KISN 091720Z 0918/1018 36008KT P6SM OVC050
     FM092000 VRB03KT P6SM VCSH OVC035
     FM100300 20005KT P6SM OVC050
     FM101100 33011KT P6SM BKN080=



000
FTUS43 KBIS 091720
TAFJMS
TAF
KJMS 091720Z 0918/1018 36005KT P6SM OVC050
     FM100200 09006KT P6SM OVC030
     FM100600 11006KT P6SM VCSH OVC035
     FM100900 13008KT 2SM -SN BR OVC010=



000
FTUS43 KBIS 091720
TAFMOT
TAF
KMOT 091720Z 0918/1018 24011KT P6SM BKN100
     FM092300 10006KT P6SM VCSH OVC035
     FM100200 11007KT 2SM -SN OVC020
     FM100600 13008KT 2SM -SN OVC010=



000
FTUS43 KBIS 091720
TAFBIS
TAF
KBIS 091720Z 0918/1018 24008KT P6SM SCT060 BKN100
     FM092100 10004KT P6SM BKN050
     FM100200 11006KT P6SM -SN OVC025
     FM100600 13007KT 2SM -SN BR OVC015=



000
FTUS43 KBIS 091720
TAFISN
TAF
KISN 091720Z 0918/1018 36008KT P6SM OVC050
     FM092000 VRB03KT P6SM VCSH OVC035
     FM100300 20005KT P6SM OVC050
     FM101100 33011KT P6SM BKN080=



000
FTUS43 KBIS 091611 AAB
TAFBIS
TAF AMD
KBIS 091611Z 0916/1012 25005KT P6SM SCT060 BKN100
     FM092100 10004KT P6SM BKN035
     FM100300 11006KT P6SM -SN OVC025
     FM100600 13007KT 2SM -SN BR OVC015=



000
FTUS43 KBIS 091611 AAB
TAFBIS
TAF AMD
KBIS 091611Z 0916/1012 25005KT P6SM SCT060 BKN100
     FM092100 10004KT P6SM BKN035
     FM100300 11006KT P6SM -SN OVC025
     FM100600 13007KT 2SM -SN BR OVC015=



000
FTUS43 KBIS 091609 AAA
TAFDIK
TAF AMD
KDIK 091609Z 0916/1012 29011KT P6SM OVC060
     FM091900 31005KT P6SM -RASN OVC030
     FM092300 18004KT P6SM OVC035
     FM100700 24006KT P6SM OVC050=



000
FTUS43 KBIS 091609 AAA
TAFDIK
TAF AMD
KDIK 091609Z 0916/1012 29011KT P6SM OVC060
     FM091900 31005KT P6SM -RASN OVC030
     FM092300 18004KT P6SM OVC035
     FM100700 24006KT P6SM OVC050=



000
FTUS43 KBIS 091607 AAA
TAFMOT
TAF AMD
KMOT 091607Z 0916/1012 23010KT P6SM BKN100
     FM091800 VRB06KT P6SM OVC080
     FM100000 10006KT P6SM VCSH OVC030
     FM100200 12007KT 2SM -SN OVC015
     FM100600 13008KT 2SM -SN OVC008=



000
FTUS43 KBIS 091605 AAA
TAFISN
TAF AMD
KISN 091605Z 0916/1012 36010KT P6SM OVC050
     FM091800 VRB05KT P6SM VCSH OVC030
     FM092300 VRB03KT P6SM OVC025
     FM100700 21005KT P6SM OVC050
     FM101100 28006KT P6SM BKN080=



000
FTUS43 KBIS 091130
TAFBIS
TAF
KBIS 091130Z 0912/1012 VRB03KT P6SM OVC045
     FM091800 10004KT P6SM VCSH OVC035
     FM100300 11006KT P6SM -SN OVC020
     FM100600 13007KT 2SM -SN BR OVC010=



000
FTUS43 KBIS 091130
TAFDIK
TAF
KDIK 091130Z 0912/1012 27004KT P6SM OVC080
     FM091700 31007KT 3SM -SN BR OVC015
     FM092100 31005KT P6SM -RASN OVC015
     FM100000 18004KT P6SM OVC035
     FM100700 24006KT P6SM OVC050=



000
FTUS43 KBIS 091130
TAFMOT
TAF
KMOT 091130Z 0912/1012 00000KT P6SM OVC040
     FM091800 00000KT P6SM OVC025
     FM092200 10005KT P6SM OVC020
     FM100000 10006KT P6SM VCSH OVC015
     FM100200 12007KT 2SM -SN OVC010
     FM100600 13008KT 2SM -SN OVC008=



000
FTUS43 KBIS 091130
TAFISN
TAF
KISN 091130Z 0912/1012 VRB03KT P6SM OVC050
     FM091600 VRB03KT 5SM -SN OVC025
     FM091800 VRB03KT 2SM -SN OVC015
     FM092300 VRB03KT P6SM OVC025
     FM100700 21005KT P6SM OVC050
     FM101100 28006KT P6SM BKN080=



000
FTUS43 KBIS 091130
TAFJMS
TAF
KJMS 091130Z 0912/1012 34005KT P6SM OVC060
     FM091800 35008KT P6SM OVC030
     FM100200 06005KT P6SM OVC050
     FM100600 11006KT P6SM VCSH OVC035
     FM100900 13008KT 2SM -SN BR OVC010=



000
FTUS43 KBIS 090525
TAFBIS
TAF
KBIS 090525Z 0906/1006 34005KT P6SM BKN050
     FM091900 04004KT P6SM OVC025
     FM100000 07005KT 6SM -SN BR OVC010
     FM100300 10006KT 2SM -SN OVC015=



000
FTUS43 KBIS 090525
TAFJMS
TAF
KJMS 090525Z 0906/1006 34008KT P6SM SCT008
     FM091200 34008KT P6SM BKN050
     FM100100 01007KT P6SM BKN050
     FM100400 04006KT P6SM BKN050=



000
FTUS43 KBIS 090525
TAFMOT
TAF
KMOT 090525Z 0906/1006 31005KT P6SM OVC050
     FM091300 02004KT P6SM OVC040
     FM091500 04004KT P6SM OVC025
     FM092300 10006KT 6SM -SN OVC015
     FM100200 12008KT 2SM -SN OVC010=



000
FTUS43 KBIS 090525
TAFDIK
TAF
KDIK 090525Z 0906/1006 30004KT P6SM OVC045
     FM091700 31008KT 2SM -SN BR OVC015
     FM092200 34006KT P6SM -RASN OVC015
     FM100000 02004KT P6SM OVC030
     FM100500 17004KT P6SM OVC020=



000
FTUS43 KBIS 090525
TAFISN
TAF
KISN 090525Z 0906/1006 VRB03KT P6SM OVC050
     FM091500 30004KT 5SM -SN BR OVC025
     FM091800 VRB03KT 2SM -SN BR OVC010
     FM100000 00000KT P6SM OVC020=



000
FTUS43 KBIS 082324
TAFISN
TAF
KISN 082324Z 0900/0924 32005KT P6SM BKN070
     FM091200 32004KT P6SM -SHSN OVC035
     FM091500 31004KT 5SM -SN BR OVC020
     FM092300 VRB03KT P6SM OVC010=



000
FTUS43 KBIS 082324
TAFBIS
TAF
KBIS 082324Z 0900/0924 33011KT P6SM BKN120
     FM091000 VRB03KT P6SM OVC060
     FM091900 04004KT P6SM OVC025=



000
FTUS43 KBIS 082324
TAFJMS
TAF
KJMS 082324Z 0900/0924 34015G22KT P6SM SCT150
     FM090200 34011KT P6SM SCT150
     FM090500 34009KT P6SM BKN150=



000
FTUS43 KBIS 082324
TAFDIK
TAF
KDIK 082324Z 0900/0924 32010KT P6SM BKN090
     FM091200 30006KT P6SM -SHSN OVC040
     FM091600 31008KT 5SM -SN BR OVC015=



000
FTUS43 KBIS 082324
TAFMOT
TAF
KMOT 082324Z 0900/0924 31011KT P6SM BKN150
     FM091400 03004KT P6SM OVC040
     FM091500 04004KT P6SM OVC020=



000
FTUS43 KBIS 081720
TAFBIS
TAF
KBIS 081720Z 0818/0918 32016G24KT P6SM SCT150
     FM090100 33008KT P6SM BKN150
     FM091300 36005KT P6SM OVC030=



000
FTUS43 KBIS 081720
TAFDIK
TAF
KDIK 081720Z 0818/0918 31015G22KT P6SM BKN200
     FM082300 31010KT P6SM BKN150
     FM091400 32008KT P6SM OVC020=



000
FTUS43 KBIS 081720
TAFJMS
TAF
KJMS 081720Z 0818/0918 34024G31KT P6SM BKN025
     FM081900 34023G32KT P6SM BKN060
     FM090000 33015G23KT P6SM BKN150
     FM090400 34009KT P6SM BKN150=



000
FTUS43 KBIS 081720
TAFMOT
TAF
KMOT 081720Z 0818/0918 30018G26KT P6SM BKN150
     FM090000 30010KT P6SM BKN100
     FM090800 34006KT P6SM OVC050
     FM090900 36005KT P6SM OVC025=



000
FTUS43 KBIS 081720
TAFISN
TAF
KISN 081720Z 0818/0918 30010KT P6SM BKN200
     FM090000 30005KT P6SM BKN060
     FM091200 33005KT P6SM OVC035
     FM091400 34004KT P6SM OVC015=



000
FTUS43 KBIS 081127
TAFBIS
TAF
KBIS 081127Z 0812/0912 32019G28KT P6SM SCT120
     FM082000 33018G26KT P6SM SCT080 BKN100
     FM090000 33010KT P6SM SCT050 BKN120
     FM090300 34006KT P6SM BKN070
     FM091100 36005KT P6SM BKN025=



000
FTUS43 KBIS 081127
TAFDIK
TAF
KDIK 081127Z 0812/0912 30013KT P6SM SCT120 SCT200
     FM090000 31008KT P6SM BKN060
     FM090700 30007KT P6SM VCSH OVC035=



000
FTUS43 KBIS 081127
TAFISN
TAF
KISN 081127Z 0812/0912 31015KT P6SM SCT120
     FM082100 30008KT P6SM BKN080
     FM090100 30004KT P6SM OVC050
     FM090800 33004KT P6SM VCSH OVC035=



000
FTUS43 KBIS 081127
TAFMOT
TAF
KMOT 081127Z 0812/0912 30015G25KT P6SM SCT090
     FM082300 30012KT P6SM BKN100
     FM090200 30008KT P6SM BKN070
     FM090800 34006KT P6SM VCSH OVC025=



000
FTUS43 KBIS 081127
TAFJMS
TAF
KJMS 081127Z 0812/0912 34018G25KT P6SM OVC028
     FM081800 33024G32KT P6SM BKN040
     FM082300 33017G25KT P6SM SCT120
     FM090300 34010KT P6SM BKN100=



000
FTUS43 KBIS 080856 CCA
TAFJMS
TAF COR
KJMS 080856Z 0809/0906 35022G32KT P6SM OVC025
     FM081700 33027G37KT P6SM SCT015
     FM082100 34024G34KT P6SM SCT140
     FM082300 33017KT P6SM BKN200=



000
FTUS43 KBIS 080856 CCA
TAFJMS
TAF COR
KJMS 080856Z 0809/0906 35022G32KT P6SM OVC025
     FM081700 33027G37KT P6SM SCT015
     FM082100 34024G34KT P6SM SCT140
     FM082300 33017KT P6SM BKN200=



000
FTUS43 KBIS 080854 AAA
TAFJMS
TAF AMD
KJMS 080854Z 0809/0906 32022G32KT P6SM OVC025
     FM081700 33027G37KT P6SM SCT015
     FM082100 34024G34KT P6SM SCT140
     FM082300 33017KT P6SM BKN200=



000
FTUS43 KBIS 080854 AAA
TAFJMS
TAF AMD
KJMS 080854Z 0809/0906 32022G32KT P6SM OVC025
     FM081700 33027G37KT P6SM SCT015
     FM082100 34024G34KT P6SM SCT140
     FM082300 33017KT P6SM BKN200=



000
FTUS43 KBIS 080853 AAA
TAFDIK
TAF AMD
KDIK 080853Z 0809/0906 31015KT P6SM FEW250
     FM082300 31011KT P6SM BKN120
     FM090200 30007KT P6SM BKN090=



000
FTUS43 KBIS 080853 CCA
TAFMOT
TAF COR
KMOT 080853Z 0809/0906 30020G28KT P6SM SCT040
     FM082300 31012KT P6SM BKN200
     FM090200 31008KT P6SM BKN070=



000
FTUS43 KBIS 080853 AAA
TAFDIK
TAF AMD
KDIK 080853Z 0809/0906 31015KT P6SM FEW250
     FM082300 31011KT P6SM BKN120
     FM090200 30007KT P6SM BKN090=



    US Dept of Commerce
    National Oceanic and Atmospheric Administration
    National Weather Service
    1325 East West Highway
    Silver Spring, MD 20910
    Page Author: NWS Internet Services Team
Disclaimer
Information Quality
Credits
Glossary
Privacy Policy
Freedom of Information Act (FOIA)
About Us
Career Opportunities